createdAt,value
2018-12-15T00:02:07.455Z,11.67
2018-12-15T00:04:34.412Z,10.60
2018-12-15T00:07:01.376Z,10.97
2018-12-15T00:09:28.375Z,11.07
2018-12-15T00:11:55.396Z,10.70
2018-12-15T00:14:22.455Z,11.47
2018-12-15T00:16:49.409Z,10.77
2018-12-15T00:19:16.418Z,9.80
2018-12-15T00:21:43.353Z,11.57
2018-12-15T00:24:10.295Z,10.33
2018-12-15T00:26:37.331Z,10.30
2018-12-15T00:29:04.345Z,10.10
2018-12-15T00:31:31.323Z,9.53
2018-12-15T00:33:58.309Z,10.13
2018-12-15T00:36:25.293Z,9.90
2018-12-15T00:38:52.310Z,9.90
2018-12-15T00:41:19.298Z,9.23
2018-12-15T00:43:46.404Z,9.67
2018-12-15T00:46:13.510Z,9.77
2018-12-15T00:48:40.466Z,9.77
2018-12-15T00:51:07.468Z,8.90
2018-12-15T00:53:34.519Z,9.10
2018-12-15T00:56:01.726Z,9.70
2018-12-15T00:58:28.677Z,9.40
2018-12-15T01:00:55.683Z,8.90
2018-12-15T01:03:22.720Z,8.90
2018-12-15T01:05:49.745Z,9.13
2018-12-15T01:08:16.698Z,9.23
2018-12-15T01:10:43.659Z,9.60
2018-12-15T01:13:10.667Z,9.37
2018-12-15T01:15:43.392Z,9.17
2018-12-15T01:18:10.429Z,8.33
2018-12-15T01:20:37.432Z,8.73
2018-12-15T01:23:04.546Z,8.40
2018-12-15T01:25:31.513Z,8.50
2018-12-15T01:27:58.459Z,8.17
2018-12-15T01:30:25.524Z,8.17
2018-12-15T01:32:52.504Z,8.40
2018-12-15T01:35:19.541Z,8.03
2018-12-15T01:37:46.543Z,7.50
2018-12-15T01:40:13.552Z,8.60
2018-12-15T01:42:40.673Z,6.87
2018-12-15T01:45:07.645Z,7.03
2018-12-15T01:47:34.664Z,7.70
2018-12-15T01:50:01.730Z,7.70
2018-12-15T01:52:28.733Z,7.53
2018-12-15T01:54:55.896Z,7.93
2018-12-15T01:57:23.066Z,7.80
2018-12-15T01:59:50.060Z,7.90
2018-12-15T02:02:17.039Z,8.13
2018-12-15T02:04:44.747Z,8.63
2018-12-15T02:07:11.769Z,7.47
2018-12-15T02:09:38.880Z,7.93
2018-12-15T02:12:05.861Z,7.33
2018-12-15T02:14:34.647Z,7.87
2018-12-15T02:17:01.735Z,7.67
2018-12-15T02:19:28.749Z,6.73
2018-12-15T02:21:55.718Z,7.47
2018-12-15T02:24:22.719Z,7.13
2018-12-15T02:26:49.713Z,7.30
2018-12-15T02:29:16.782Z,7.63
2018-12-15T02:31:44.108Z,6.53
2018-12-15T02:34:11.107Z,6.43
2018-12-15T02:36:38.116Z,6.50
2018-12-15T02:39:06.440Z,6.23
2018-12-15T02:41:34.161Z,5.70
2018-12-15T02:44:01.198Z,6.73
2018-12-15T02:46:28.271Z,6.47
2018-12-15T02:48:55.252Z,6.30
2018-12-15T02:51:22.244Z,6.93
2018-12-15T02:53:49.232Z,6.63
2018-12-15T02:56:16.181Z,6.60
2018-12-15T02:58:43.201Z,6.27
2018-12-15T03:01:10.210Z,6.40
2018-12-15T03:03:37.201Z,5.80
2018-12-15T03:06:04.921Z,6.23
2018-12-15T03:08:31.954Z,6.50
2018-12-15T03:10:58.960Z,6.47
2018-12-15T03:13:26.034Z,7.67
2018-12-15T03:15:53.022Z,6.17
2018-12-15T03:18:20.051Z,5.93
2018-12-15T03:20:59.045Z,5.17
2018-12-15T03:23:26.097Z,5.37
2018-12-15T03:25:53.077Z,4.97
2018-12-15T03:28:21.020Z,5.20
2018-12-15T03:30:48.021Z,5.20
2018-12-15T03:33:15.013Z,5.33
2018-12-15T03:35:42.179Z,5.30
2018-12-15T03:38:09.178Z,5.13
2018-12-15T03:40:36.936Z,6.20
2018-12-15T03:43:03.964Z,5.47
2018-12-15T03:45:31.024Z,5.60
2018-12-15T03:47:58.038Z,5.57
2018-12-15T03:50:25.042Z,6.10
2018-12-15T03:52:52.005Z,5.50
2018-12-15T03:55:18.975Z,5.77
2018-12-15T03:57:45.915Z,6.27
2018-12-15T04:00:12.890Z,5.63
2018-12-15T04:02:39.863Z,6.80
2018-12-15T04:05:06.935Z,6.33
2018-12-15T04:07:34.090Z,6.00
2018-12-15T04:10:01.038Z,6.00
2018-12-15T04:12:28.105Z,6.37
2018-12-15T04:14:55.090Z,7.20
2018-12-15T04:17:22.223Z,6.33
2018-12-15T04:19:49.820Z,6.67
2018-12-15T04:22:18.855Z,6.75
2018-12-15T04:24:46.026Z,6.70
2018-12-15T04:27:13.142Z,5.93
2018-12-15T04:29:40.717Z,6.03
2018-12-15T04:32:07.894Z,6.63
2018-12-15T04:34:35.021Z,6.37
2018-12-15T04:37:02.089Z,6.50
2018-12-15T04:39:29.305Z,6.90
2018-12-15T04:41:56.442Z,7.10
2018-12-15T04:44:23.537Z,5.97
2018-12-15T04:46:50.899Z,6.50
2018-12-15T04:49:18.133Z,7.43
2018-12-15T04:51:45.267Z,7.57
2018-12-15T04:54:13.019Z,6.73
2018-12-15T04:56:40.172Z,6.03
2018-12-15T04:59:09.000Z,6.60
2018-12-15T05:01:36.438Z,6.63
2018-12-15T05:04:03.534Z,6.30
2018-12-15T05:06:30.693Z,6.67
2018-12-15T05:08:58.374Z,6.83
2018-12-15T05:11:25.962Z,6.60
2018-12-15T05:13:53.159Z,6.13
2018-12-15T05:16:20.552Z,6.43
2018-12-15T05:18:48.640Z,6.77
2018-12-15T05:21:15.761Z,5.70
2018-12-15T05:23:43.211Z,8.37
2018-12-15T05:26:10.314Z,6.73
2018-12-15T05:28:37.781Z,6.70
2018-12-15T05:31:05.491Z,6.60
2018-12-15T05:50:59.330Z,7.53
2018-12-15T05:53:27.305Z,7.57
2018-12-15T05:55:55.380Z,7.70
2018-12-15T05:58:22.449Z,7.70
2018-12-15T06:00:50.255Z,7.80
2018-12-15T06:03:20.399Z,7.47
2018-12-15T06:05:47.489Z,7.40
2018-12-15T06:08:17.154Z,7.03
2018-12-15T06:10:45.360Z,7.87
2018-12-15T06:13:12.468Z,7.30
2018-12-15T06:15:39.781Z,7.67
2018-12-15T06:18:07.878Z,7.63
2018-12-15T06:20:35.046Z,8.97
2018-12-15T06:23:02.220Z,7.97
2018-12-15T06:25:29.534Z,8.53
2018-12-15T06:27:56.780Z,8.53
2018-12-15T06:30:23.909Z,7.87
2018-12-15T06:32:50.981Z,7.60
2018-12-15T06:35:18.264Z,8.97
2018-12-15T06:37:45.342Z,8.50
2018-12-15T06:40:12.599Z,7.83
2018-12-15T06:42:39.702Z,7.90
2018-12-15T06:45:06.898Z,9.60
2018-12-15T06:47:34.673Z,8.77
2018-12-15T06:50:03.382Z,9.17
2018-12-15T06:52:30.519Z,9.10
2018-12-15T06:54:57.650Z,9.77
2018-12-15T06:57:24.827Z,8.23
2018-12-15T06:59:52.151Z,10.17
2018-12-15T07:02:19.185Z,8.83
2018-12-15T07:04:46.310Z,8.93
2018-12-15T07:07:13.458Z,8.53
2018-12-15T07:09:40.528Z,8.23
2018-12-15T07:12:07.715Z,8.63
2018-12-15T07:14:34.712Z,7.90
2018-12-15T07:17:01.906Z,10.17
2018-12-15T07:19:36.147Z,9.60
2018-12-15T07:22:06.310Z,9.77
2018-12-15T07:24:34.360Z,9.43
2018-12-15T07:27:02.155Z,8.53
2018-12-15T07:29:30.018Z,8.53
2018-12-15T07:31:57.330Z,8.30
2018-12-15T07:34:24.600Z,9.07
2018-12-15T07:36:53.596Z,9.63
2018-12-15T07:39:22.048Z,10.37
2018-12-15T07:41:50.477Z,7.97
2018-12-15T07:44:17.657Z,8.30
2018-12-15T07:46:46.108Z,10.63
2018-12-15T07:49:14.942Z,9.00
2018-12-15T07:51:42.203Z,9.93
2018-12-15T07:54:10.171Z,10.67
2018-12-15T07:56:38.603Z,8.90
2018-12-15T07:59:05.659Z,7.77
2018-12-15T08:01:37.851Z,7.90
2018-12-15T08:04:10.884Z,10.45
2018-12-15T08:06:38.322Z,8.70
2018-12-15T08:09:06.523Z,9.83
2018-12-15T08:11:43.578Z,8.87
2018-12-15T08:14:10.594Z,8.00
2018-12-15T08:16:37.638Z,8.53
2018-12-15T08:19:05.891Z,9.10
2018-12-15T08:21:31.737Z,8.03
2018-12-15T08:24:00.326Z,8.77
2018-12-15T08:26:27.513Z,9.23
2018-12-15T08:28:54.759Z,8.43
2018-12-15T08:31:23.359Z,9.30
2018-12-15T08:33:50.473Z,8.73
2018-12-15T08:36:18.333Z,10.70
2018-12-15T08:38:55.745Z,9.00
2018-12-15T08:41:34.118Z,8.00
2018-12-15T08:44:12.489Z,8.50
2018-12-15T08:46:55.889Z,9.20
2018-12-15T08:49:40.688Z,8.77
2018-12-15T08:52:08.169Z,10.43
2018-12-15T08:54:35.249Z,11.17
2018-12-15T09:01:59.199Z,7.83
2018-12-15T09:04:26.507Z,11.10
2018-12-15T09:06:53.682Z,8.23
2018-12-15T09:12:23.136Z,8.97
2018-12-15T09:14:50.995Z,9.03
2018-12-15T09:22:32.206Z,13.93
2018-12-15T09:25:05.656Z,11.10
2018-12-15T09:32:40.696Z,14.57
2018-12-15T09:49:01.595Z,15.33
2018-12-15T09:54:06.874Z,13.13
2018-12-15T09:56:35.705Z,12.53
2018-12-15T09:59:03.512Z,11.27
2018-12-15T10:01:33.297Z,12.67
2018-12-15T10:04:01.068Z,10.30
2018-12-15T10:06:29.253Z,10.37
2018-12-15T10:08:56.825Z,10.77
2018-12-15T10:11:24.879Z,13.53
2018-12-15T10:13:56.804Z,12.53
2018-12-15T10:16:31.077Z,12.60
2018-12-15T10:18:59.415Z,11.43
2018-12-15T10:24:21.088Z,14.77
2018-12-15T10:26:49.734Z,11.40
2018-12-15T10:29:23.352Z,11.03
2018-12-15T10:35:20.906Z,15.03
2018-12-15T10:37:50.062Z,16.27
2018-12-15T10:40:23.324Z,15.67
2018-12-15T10:42:51.940Z,12.50
2018-12-15T10:45:20.491Z,11.00
2018-12-15T10:47:49.632Z,12.67
2018-12-15T10:50:17.209Z,12.77
2018-12-15T10:52:45.506Z,11.57
2018-12-15T10:57:48.033Z,14.30
2018-12-15T11:02:23.714Z,14.30
2018-12-15T11:04:51.215Z,14.90
2018-12-15T11:07:36.620Z,20.77
2018-12-15T11:10:08.309Z,14.30
2018-12-15T11:12:36.718Z,11.13
2018-12-15T11:15:06.732Z,10.83
2018-12-15T11:17:38.205Z,12.53
2018-12-15T11:23:06.226Z,12.30
2018-12-15T11:25:34.998Z,12.40
2018-12-15T11:34:15.243Z,11.50
2018-12-15T11:36:42.819Z,12.57
2018-12-15T11:39:10.425Z,12.67
2018-12-15T11:41:38.980Z,13.37
2018-12-15T11:44:08.504Z,13.63
2018-12-15T11:46:57.250Z,14.27
2018-12-15T11:53:06.526Z,12.83
2018-12-15T11:55:35.725Z,11.70
2018-12-15T11:58:04.309Z,14.60
2018-12-15T12:00:33.608Z,12.03
2018-12-15T12:03:01.246Z,11.07
2018-12-15T12:05:29.597Z,13.20
2018-12-15T12:07:58.007Z,12.03
2018-12-15T12:10:26.399Z,14.03
2018-12-15T12:12:55.331Z,13.03
2018-12-15T12:15:23.495Z,11.93
2018-12-15T12:17:51.969Z,11.77
2018-12-15T12:25:21.553Z,12.50
2018-12-15T12:27:50.909Z,12.03
2018-12-15T12:30:18.198Z,11.77
2018-12-15T12:32:46.282Z,13.30
2018-12-15T12:35:13.799Z,13.10
2018-12-15T12:37:44.386Z,13.17
2018-12-15T12:40:20.991Z,14.10
2018-12-15T12:42:49.662Z,13.63
2018-12-15T12:45:16.874Z,13.10
2018-12-15T12:47:45.330Z,14.60
2018-12-15T12:50:43.148Z,14.17
2018-12-15T12:53:14.652Z,15.13
2018-12-15T12:55:42.552Z,12.37
2018-12-15T12:58:10.501Z,16.60
2018-12-15T13:00:38.223Z,16.40
2018-12-15T13:03:05.319Z,11.93
2018-12-15T13:05:32.731Z,12.13
2018-12-15T13:08:02.775Z,12.60
2018-12-15T13:10:40.791Z,13.80
2018-12-15T13:13:08.486Z,11.63
2018-12-15T13:15:35.966Z,13.70
2018-12-15T13:18:03.218Z,12.87
2018-12-15T13:20:31.242Z,13.73
2018-12-15T13:23:00.635Z,13.33
2018-12-15T13:25:28.097Z,14.87
2018-12-15T13:27:55.631Z,12.90
2018-12-15T13:30:23.460Z,13.40
2018-12-15T13:32:51.806Z,12.77
2018-12-15T13:35:19.322Z,13.23
2018-12-15T13:37:46.466Z,14.00
2018-12-15T13:40:14.349Z,12.93
2018-12-15T13:42:42.593Z,12.03
2018-12-15T13:45:11.910Z,13.73
2018-12-15T13:47:40.063Z,14.23
2018-12-15T13:50:10.368Z,12.60
2018-12-15T13:52:37.384Z,16.17
2018-12-15T13:55:25.273Z,18.30
2018-12-15T14:02:50.073Z,13.17
2018-12-15T14:05:18.940Z,12.90
2018-12-15T14:07:46.059Z,13.53
2018-12-15T14:10:13.129Z,13.40
2018-12-15T14:12:40.340Z,11.77
2018-12-15T14:15:07.417Z,13.27
2018-12-15T14:17:34.572Z,12.10
2018-12-15T14:20:03.484Z,14.07
2018-12-15T14:22:30.599Z,12.47
2018-12-15T14:24:57.723Z,13.33
2018-12-15T14:27:24.874Z,13.37
2018-12-15T14:29:52.971Z,13.63
2018-12-15T14:32:19.944Z,14.03
2018-12-15T14:34:47.221Z,14.80
2018-12-15T14:37:14.912Z,13.63
2018-12-15T14:39:41.991Z,14.10
2018-12-15T14:42:09.619Z,13.20
2018-12-15T14:44:36.661Z,13.10
2018-12-15T14:47:03.844Z,13.13
2018-12-15T14:49:32.222Z,12.57
2018-12-15T14:51:59.184Z,12.40
2018-12-15T14:54:26.184Z,13.43
2018-12-15T14:56:53.264Z,13.87
2018-12-15T14:59:21.286Z,12.73
2018-12-15T15:01:48.350Z,13.53
2018-12-15T15:04:15.543Z,13.70
2018-12-15T15:06:42.836Z,13.87
2018-12-15T15:09:10.010Z,13.27
2018-12-15T15:11:37.190Z,14.83
2018-12-15T15:14:04.277Z,15.27
2018-12-15T15:16:31.560Z,13.37
2018-12-15T15:18:59.190Z,14.33
2018-12-15T15:21:26.326Z,13.70
2018-12-15T15:23:53.528Z,13.30
2018-12-15T15:26:20.911Z,13.53
2018-12-15T15:28:48.108Z,14.00
2018-12-15T15:31:15.198Z,13.73
2018-12-15T15:33:42.270Z,14.67
2018-12-15T15:36:09.629Z,13.80
2018-12-15T15:38:36.807Z,14.57
2018-12-15T15:41:04.101Z,15.37
2018-12-15T15:43:31.417Z,15.30
2018-12-15T15:45:58.866Z,14.27
2018-12-15T15:48:26.081Z,14.63
2018-12-15T15:50:53.876Z,13.97
2018-12-15T15:53:21.027Z,14.40
2018-12-15T15:55:48.146Z,14.23
2018-12-15T15:58:15.351Z,13.80
2018-12-15T16:00:42.655Z,14.93
2018-12-15T16:03:10.078Z,15.57
2018-12-15T16:05:37.859Z,14.27
2018-12-15T16:08:05.466Z,15.13
2018-12-15T16:10:32.804Z,20.43
2018-12-15T16:12:59.959Z,22.80
2018-12-15T16:15:27.714Z,20.37
2018-12-15T16:17:54.997Z,17.07
2018-12-15T16:20:22.168Z,14.57
2018-12-15T16:22:49.494Z,15.27
2018-12-15T16:25:17.415Z,15.83
2018-12-15T16:27:44.555Z,15.53
2018-12-15T16:30:11.956Z,14.10
2018-12-15T16:32:40.045Z,14.60
2018-12-15T16:35:07.198Z,15.13
2018-12-15T16:37:35.181Z,15.40
2018-12-15T16:40:02.284Z,16.10
2018-12-15T16:42:29.471Z,15.90
2018-12-15T16:44:57.690Z,16.37
2018-12-15T16:47:25.663Z,15.60
2018-12-15T16:49:52.826Z,15.63
2018-12-15T16:52:19.926Z,17.67
2018-12-15T16:54:47.242Z,16.00
2018-12-15T17:00:48.061Z,15.23
2018-12-15T17:03:15.476Z,19.60
2018-12-15T17:05:52.057Z,19.47
2018-12-15T17:08:19.309Z,20.40
2018-12-15T17:10:46.419Z,18.53
2018-12-15T17:13:13.703Z,17.57
2018-12-15T17:15:40.725Z,19.63
2018-12-15T17:18:07.794Z,16.17
2018-12-15T17:20:35.739Z,15.83
2018-12-15T17:23:02.837Z,16.80
2018-12-15T17:25:29.974Z,15.57
2018-12-15T17:27:57.602Z,17.17
2018-12-15T17:30:24.892Z,16.63
2018-12-15T17:32:51.979Z,16.33
2018-12-15T17:35:19.011Z,17.00
2018-12-15T17:37:46.168Z,18.33
2018-12-15T17:40:13.354Z,17.07
2018-12-15T17:42:40.546Z,17.93
2018-12-15T17:45:07.900Z,17.60
2018-12-15T17:47:35.455Z,19.63
2018-12-15T17:50:02.696Z,17.93
2018-12-15T17:52:29.807Z,21.80
2018-12-15T17:54:57.294Z,18.70
2018-12-15T17:57:24.535Z,18.60
2018-12-15T17:59:51.725Z,17.47
2018-12-15T18:02:19.041Z,18.30
2018-12-15T18:04:46.209Z,17.83
2018-12-15T18:07:13.415Z,17.93
2018-12-15T18:09:40.483Z,16.50
2018-12-15T18:12:07.694Z,18.20
2018-12-15T18:14:35.541Z,19.07
2018-12-15T18:17:02.670Z,17.03
2018-12-15T18:19:29.934Z,16.47
2018-12-15T18:21:57.333Z,15.43
2018-12-15T18:24:24.506Z,17.13
2018-12-15T18:26:51.788Z,17.30
2018-12-15T18:29:18.952Z,17.20
2018-12-15T18:31:46.127Z,17.37
2018-12-15T18:34:13.324Z,18.40
2018-12-15T18:36:40.539Z,19.30
2018-12-15T18:39:07.706Z,17.03
2018-12-15T18:41:35.135Z,19.67
2018-12-15T18:44:02.368Z,16.37
2018-12-15T18:46:29.481Z,17.50
2018-12-15T18:48:56.749Z,15.47
2018-12-15T18:51:24.444Z,16.23
2018-12-15T18:53:51.829Z,16.53
2018-12-15T18:56:19.004Z,15.83
2018-12-15T18:58:46.149Z,17.40
2018-12-15T19:01:13.339Z,17.07
2018-12-15T19:03:40.376Z,17.23
2018-12-15T19:06:07.507Z,17.23
2018-12-15T19:08:34.797Z,18.60
2018-12-15T19:11:01.942Z,17.70
2018-12-15T19:13:30.307Z,17.47
2018-12-15T19:15:57.550Z,16.60
2018-12-15T19:18:24.698Z,16.67
2018-12-15T19:20:51.814Z,18.53
2018-12-15T19:23:19.038Z,16.77
2018-12-15T19:25:46.166Z,18.03
2018-12-15T19:28:13.414Z,18.20
2018-12-15T19:30:42.905Z,18.53
2018-12-15T19:33:11.939Z,18.03
2018-12-15T19:35:41.307Z,17.50
2018-12-15T19:38:08.457Z,17.57
2018-12-15T19:40:37.775Z,24.43
2018-12-15T19:43:19.632Z,19.63
2018-12-15T19:45:50.161Z,20.20
2018-12-15T19:53:17.128Z,18.03
2018-12-15T19:55:44.360Z,18.63
2018-12-15T19:58:11.978Z,20.10
2018-12-15T20:00:39.340Z,22.27
2018-12-15T20:03:28.760Z,44.97
2018-12-15T20:05:56.582Z,20.32
2018-12-15T20:08:24.910Z,21.57
2018-12-15T20:10:52.307Z,20.77
2018-12-15T20:13:19.476Z,22.57
2018-12-15T20:15:46.649Z,18.87
2018-12-15T20:25:51.634Z,19.50
2018-12-15T20:28:18.879Z,20.30
2018-12-15T20:30:46.668Z,20.43
2018-12-15T20:33:13.644Z,17.93
2018-12-15T20:35:40.705Z,18.93
2018-12-15T20:38:07.982Z,17.33
2018-12-15T20:40:35.155Z,20.73
2018-12-15T20:43:02.176Z,20.40
2018-12-15T20:45:29.154Z,19.00
2018-12-15T20:47:56.356Z,19.30
2018-12-15T20:50:23.513Z,18.70
2018-12-15T20:52:50.669Z,20.57
2018-12-15T20:55:18.053Z,20.00
2018-12-15T20:57:45.403Z,19.23
2018-12-15T21:00:13.317Z,18.83
2018-12-15T21:02:40.535Z,21.73
2018-12-15T21:05:08.089Z,19.63
2018-12-15T21:07:35.315Z,20.33
2018-12-15T21:10:02.379Z,19.67
2018-12-15T21:12:29.475Z,18.70
2018-12-15T21:15:01.163Z,19.30
2018-12-15T21:17:28.426Z,21.10
2018-12-15T21:19:55.815Z,21.07
2018-12-15T21:22:22.945Z,18.87
2018-12-15T21:24:51.061Z,19.43
2018-12-15T21:27:18.155Z,19.70
2018-12-15T21:29:45.171Z,19.20
2018-12-15T21:32:12.270Z,18.73
2018-12-15T21:34:39.643Z,20.27
2018-12-15T21:37:06.796Z,20.00
2018-12-15T21:39:34.599Z,19.27
2018-12-15T21:42:01.950Z,20.07
2018-12-15T21:44:28.991Z,20.63
2018-12-15T21:46:56.024Z,21.10
2018-12-15T21:49:24.411Z,19.57
2018-12-15T21:51:56.253Z,20.70
2018-12-15T21:54:19.435Z,18.50
2018-12-15T21:56:46.689Z,20.83
2018-12-15T21:59:13.745Z,20.23
2018-12-15T22:01:41.283Z,23.20
2018-12-15T22:04:08.856Z,20.90
2018-12-15T22:06:35.908Z,20.43
2018-12-15T22:09:03.144Z,21.10
2018-12-15T22:11:30.237Z,19.87
2018-12-15T22:13:58.136Z,21.53
2018-12-15T22:16:25.110Z,19.90
2018-12-15T22:18:52.373Z,22.80
2018-12-15T22:21:19.440Z,19.77
2018-12-15T22:23:46.507Z,20.37
2018-12-15T22:26:13.624Z,20.10
2018-12-15T22:28:40.787Z,20.97
2018-12-15T22:31:07.818Z,20.57
2018-12-15T22:33:35.378Z,19.73
2018-12-15T22:36:02.639Z,20.80
2018-12-15T22:38:29.734Z,20.53
2018-12-15T22:40:56.661Z,19.53
2018-12-15T22:43:23.607Z,19.90
2018-12-15T22:45:50.595Z,20.93
2018-12-15T22:48:18.072Z,20.53
2018-12-15T22:50:46.145Z,21.97
2018-12-15T22:58:09.709Z,20.73
2018-12-15T23:00:42.830Z,20.77
2018-12-15T23:03:09.870Z,20.77
2018-12-15T23:05:36.769Z,21.93
2018-12-15T23:08:03.703Z,21.63
2018-12-15T23:10:30.676Z,20.17
2018-12-15T23:12:57.629Z,21.27
2018-12-15T23:15:24.700Z,21.63
2018-12-15T23:17:51.751Z,21.37
2018-12-15T23:20:18.798Z,21.53
2018-12-15T23:22:45.776Z,20.80
2018-12-15T23:25:12.809Z,20.53
2018-12-15T23:27:40.552Z,22.20
2018-12-15T23:30:07.568Z,19.90
2018-12-15T23:32:35.157Z,21.33
2018-12-15T23:35:02.247Z,21.87
2018-12-15T23:37:29.293Z,20.30
2018-12-15T23:39:56.318Z,20.83
2018-12-15T23:42:23.263Z,20.37
2018-12-15T23:44:50.982Z,21.70
2018-12-15T23:47:17.937Z,21.10
2018-12-15T23:49:44.895Z,21.07
2018-12-15T23:52:11.853Z,21.80
2018-12-15T23:54:41.825Z,20.93
2018-12-15T23:57:08.841Z,21.37
2018-12-15T23:59:35.909Z,19.60
